Nearby METAR Reports

Here are local weather reports from nearby weather stations and airports.

KHFD - Hartford/Brainar, Connecticut, USA
Distance from station: NE 5mi, 8km
Updated: Tue, 04/13/21 3:53pm EDT
Overcast
Overcast
 Wind from N
Wind: N 10 mph , 17 km/h
Temperature: 64°F , 18°C
Dew Point: 41°F , 5°C
Humidity: 43%
Barometer: 29.98 inHg , 1015.2 hPa
Clouds: Overcast
Visibility: 10 miles , 16 km
Cloud details: Overcast 6000 ft
2021/04/13 19:53 KHFD 131953Z 35009KT 10SM OVC060 18/05 A2998 RMK AO2 SLP151 T01830050
KMMK - Meriden, Connecticut, USA
Distance from station: SSW 13mi, 21km
Updated: Tue, 04/13/21 3:53pm EDT
Partly cloudy
Partly cloudy
 Wind from ENE
Wind: ENE 8 mph , 13 km/h
Temperature: 66°F , 19°C
Dew Point: 39°F , 4°C
Humidity: 37%
Barometer: 29.98 inHg , 1015.2 hPa
Clouds: Partly cloudy
Visibility: 10 miles , 16 km
Cloud details: Partly cloudy 6000 ft
2021/04/13 19:53 KMMK 131953Z AUTO 06007KT 10SM SCT060 19/04 A2998 RMK AO2 SLP151 T01940044
 
KBDL - Windsor Locks, Connecticut, USA
Distance from station: N 17mi, 28km
Updated: Tue, 04/13/21 3:51pm EDT
Mostly cloudy
Mostly cloudy
 Wind from NE
Wind: NE 6 mph , 9 km/h
Temperature: 66°F , 19°C
Dew Point: 39°F , 4°C
Humidity: 37%
Barometer: 29.97 inHg , 1014.9 hPa
Clouds: Mostly cloudy
Visibility: 10 miles , 16 km
Cloud details: Mostly cloudy 6000 ft
Mostly cloudy 10000 ft
2021/04/13 19:51 KBDL 131951Z 04005KT 10SM BKN060 BKN100 19/04 A2997 RMK AO2 SLP150 T01940044
KSNC - Chester, Connecticut, USA
Distance from station: SSE 24mi, 38km
Updated: Tue, 04/13/21 4:15pm EDT
Few Clouds
Few Clouds
 Wind from S
Wind: S 8 mph , 13 km/h
Temperature: 64°F , 18°C
Dew Point: 39°F , 4°C
Humidity: 40%
Barometer: 29.99 inHg , 1015.6 hPa
Clouds: Few Clouds
Visibility: 10 miles , 16 km
Cloud details: Few Clouds 5000 ft
2021/04/13 20:15 KSNC 132015Z AUTO 17007KT 10SM FEW050 18/04 A2999 RMK AO2
 
KOXC - Oxford/Waterbury, Connecticut, USA
Distance from station: SW 26mi, 42km
Updated: Tue, 04/13/21 3:51pm EDT
Mostly cloudy
Mostly cloudy
 Wind from E
Wind: E 3 mph , 6 km/h
Temperature: 61°F , 16°C
Dew Point: 43°F , 6°C
Humidity: 52%
Barometer: 29.99 inHg , 1015.6 hPa
Clouds: Mostly cloudy
Visibility: 10 miles , 16 km
Cloud details: Mostly cloudy 5000 ft
2021/04/13 19:51 KOXC 131951Z 09003KT 10SM BKN050 16/06 A2999 RMK AO2 SLP170 T01610061
KIJD - Willimantic, Connecticut, USA
Distance from station: E 28mi, 45km
Updated: Tue, 04/13/21 3:52pm EDT
Clear
Clear
 Wind from NE
Wind: NE 9 mph , 15 km/h
Temperature: 64°F , 18°C
Dew Point: 39°F , 4°C
Humidity: 40%
Barometer: 29.99 inHg , 1015.6 hPa
Clouds: Clear
Visibility: 10 miles , 16 km
2021/04/13 19:52 KIJD 131952Z AUTO 05008KT 10SM CLR 18/04 A2999 RMK AO2 SLP154 T01780044
 
KHVN - New Haven/Tweed, Connecticut, USA
Distance from station: SSW 30mi, 48km
Updated: Tue, 04/13/21 3:53pm EDT
Partly cloudy
Partly cloudy
 Wind from SW
Wind: SW 9 mph , 15 km/h
Temperature: 59°F , 15°C
Dew Point: 45°F , 7°C
Humidity: 59%
Barometer: 29.98 inHg , 1015.2 hPa
Clouds: Partly cloudy
Visibility: 10 miles , 16 km
Cloud details: Partly cloudy 5500 ft
2021/04/13 19:53 KHVN 131953Z 22008KT 10SM SCT055 15/07 A2998 RMK AO2 SLP153 T01500072
KBAF - Westfield, Massachusetts, USA
Distance from station: 0 33mi, 54km
Updated: Tue, 04/13/21 3:53pm EDT
Mostly cloudy
Mostly cloudy
 Wind from NE
Wind: NE 10 mph , 17 km/h
Temperature: 64°F , 18°C
Dew Point: 41°F , 5°C
Humidity: 43%
Barometer: 29.98 inHg , 1015.2 hPa
Clouds: Mostly cloudy
Visibility: 10 miles , 16 km
Cloud details: Mostly cloudy 5500 ft
2021/04/13 19:53 KBAF 131953Z 05009KT 10SM BKN055 18/05 A2998 RMK AO2 SLP152 T01830050
 
KCEF - Chicopee/Westove, Massachusetts, USA
Distance from station: NNE 37mi, 60km
Updated: Tue, 04/13/21 3:56pm EDT
Mostly cloudy
Mostly cloudy
 Wind from NNE
Wind: NNE 10 mph , 17 km/h
Temperature: 64°F , 18°C
Dew Point: 41°F , 5°C
Humidity: 43%
Barometer: 29.97 inHg , 1014.9 hPa
Clouds: Mostly cloudy
Visibility: 10 miles , 16 km
Cloud details: Mostly cloudy 5500 ft
2021/04/13 19:56 KCEF 131956Z 02009KT 10SM BKN055 18/05 A2997 RMK AO2A SLP156 T01830048
KBDR - Bridgeport, Connecticut, USA
Distance from station: SSW 42mi, 67km
Updated: Tue, 04/13/21 3:52pm EDT
Few Clouds
Few Clouds
 Wind from SSW
Wind: SSW 13 mph , 20 km/h
Temperature: 57°F , 14°C
Dew Point: 45°F , 7°C
Humidity: 63%
Barometer: 29.99 inHg , 1015.6 hPa
Clouds: Few Clouds
Visibility: 10 miles , 16 km
Cloud details: Few Clouds 5500 ft
2021/04/13 19:52 KBDR 131952Z 21011KT 10SM FEW055 14/07 A2999 RMK AO2 SLP155 T01440067
 
KGON - Groton/New Londo, Connecticut, USA
Distance from station: SE 42mi, 68km
Updated: Tue, 04/13/21 3:56pm EDT
Mostly cloudy
Mostly cloudy
 Wind from SSW
Wind: SSW 10 mph , 17 km/h
Temperature: 52°F , 11°C
Dew Point: 43°F , 6°C
Humidity: 72%
Barometer: 30.00 inHg , 1015.9 hPa
Clouds: Mostly cloudy
Visibility: 10 miles , 16 km
Cloud details: Mostly cloudy 4700 ft
2021/04/13 19:56 KGON 131956Z 21009KT 10SM BKN047 11/06 A3000 RMK AO2 SLP160 T01110061
KDXR - Danbury, Connecticut, USA
Distance from station: WSW 45mi, 73km
Updated: Tue, 04/13/21 3:53pm EDT
Partly cloudy
Partly cloudy
 Wind from NNW
Wind: NNW 8 mph , 13 km/h
Temperature: 64°F , 18°C
Dew Point: 43°F , 6°C
Humidity: 46%
Barometer: 30.00 inHg , 1015.9 hPa
Clouds: Partly cloudy
Visibility: 10 miles , 16 km
Cloud details: Partly cloudy 5000 ft
2021/04/13 19:53 KDXR 131953Z 34007KT 10SM SCT050 18/06 A3000 RMK AO2 SLP160 T01780056